Aviation Digital Data Service (ADDS)

Output produced by METARs form (0015 UTC 24 July 2014)
found at http://www.aviationweather.gov/adds/metars/
 
METAR text: KCCU 232356Z AUTO 22012G23KT 170V250 10SM SCT049 BKN060 OVC095 15/01 A3088 RMK AO2 LTG DSNT E AND W
Conditions at: KCCU (RED CLIFF PASS , CO, US) observed 2356 UTC 23 July 2014
Temperature: 15.0°C (59°F)
Dewpoint: 1.0°C (34°F) [RH = 39%]
Pressure (altimeter): 30.88 inches Hg (1045.8 mb)
Winds: from the SW (220 degrees) at 14 MPH (12 knots; 6.2 m/s)
gusting to 26 MPH (23 knots; 12.0 m/s)
Visibility: 10 or more miles (16+ km)
Ceiling: 6000 feet AGL
Clouds: scattered clouds at 4900 feet AGL
broken clouds at 6000 feet AGL
overcast cloud deck at 9500 feet AGL
Weather: automated observation with no human augmentation;
there may or may not be significant weather present at this time